Time;durP1;ratioP1;P1;durP2;ratioP2;P2;SDS_P1;SDS_P2;PMS_P1;PMS_P2;Temp;Humidity;BMP_temperature;BMP_pressure;BME280_temperature;BME280_humidity;BME280_pressure;Samples;Min_cycle;Max_cycle;Signal;HPM_P1;HPM_P2
2023/01/29 00:01:05;;;;;;;10.60;6.82;;;;;;;;;;10374495;28;20460;-58
2023/01/29 00:06:08;;;;;;;8.73;5.88;;;;;;;;;;10374330;28;20065;-58
2023/01/29 00:11:09;;;;;;;10.73;7.05;;;;;;;;;;10356611;28;20480;-55
2023/01/29 00:16:09;;;;;;;10.45;6.75;;;;;;;;;;10372678;28;20054;-57
2023/01/29 00:21:13;;;;;;;8.65;6.78;;;;;;;;;;10373730;28;20045;-56
2023/01/29 00:26:14;;;;;;;13.68;7.05;;;;;;;;;;10373252;28;20161;-57
2023/01/29 00:31:18;;;;;;;8.60;6.35;;;;;;;;;;10373043;28;20018;-55
2023/01/29 00:36:20;;;;;;;9.40;6.45;;;;;;;;;;10373033;28;20401;-54
2023/01/29 00:46:40;;;;;;;9.52;6.32;;;;;;;;;;10372775;28;20033;-58
2023/01/29 00:51:41;;;;;;;10.63;7.30;;;;;;;;;;10372529;28;20493;-58
2023/01/29 00:56:41;;;;;;;9.13;6.30;;;;;;;;;;10372235;28;20389;-58
2023/01/29 01:07:02;;;;;;;9.02;6.65;;;;;;;;;;10365705;28;20051;-56
2023/01/29 01:12:02;;;;;;;10.45;6.65;;;;;;;;;;10368361;28;20398;-57
2023/01/29 01:17:03;;;;;;;11.25;7.03;;;;;;;;;;10370850;28;20442;-58
2023/01/29 01:22:03;;;;;;;9.38;7.15;;;;;;;;;;10370910;28;20030;-57
2023/01/29 01:27:04;;;;;;;10.25;6.82;;;;;;;;;;10370864;28;20034;-56
2023/01/29 01:32:05;;;;;;;9.15;6.55;;;;;;;;;;10369993;28;20034;-56
2023/01/29 01:37:06;;;;;;;12.65;6.88;;;;;;;;;;10370169;28;20042;-55
2023/01/29 01:42:15;;;;;;;9.45;6.60;;;;;;;;;;10370249;28;20511;-57
2023/01/29 01:47:22;;;;;;;9.25;5.93;;;;;;;;;;10369846;28;20555;-54
2023/01/29 01:52:23;;;;;;;8.38;6.28;;;;;;;;;;10360096;28;20041;-56
2023/01/29 01:57:26;;;;;;;9.48;6.53;;;;;;;;;;10369497;28;20056;-57
2023/01/29 02:13:08;;;;;;;9.60;6.35;;;;;;;;;;10367525;28;20485;-55
2023/01/29 02:18:09;;;;;;;10.98;6.65;;;;;;;;;;10369017;28;20021;-57
2023/01/29 02:24:07;;;;;;;9.27;6.25;;;;;;;;;;10350446;28;20536;-56
2023/01/29 02:29:26;;;;;;;9.77;6.13;;;;;;;;;;10284708;28;20045;-57
2023/01/29 02:40:38;;;;;;;7.60;5.97;;;;;;;;;;10350375;28;20577;-45
2023/01/29 02:45:48;;;;;;;9.18;6.35;;;;;;;;;;10352069;28;20524;-45
2023/01/29 02:51:00;;;;;;;10.00;6.85;;;;;;;;;;10366648;28;20022;-46
2023/01/29 02:56:15;;;;;;;8.23;5.68;;;;;;;;;;10358833;28;20030;-46
2023/01/29 03:01:24;;;;;;;8.63;6.15;;;;;;;;;;10361213;28;20532;-47
2023/01/29 03:06:52;;;;;;;8.00;5.80;;;;;;;;;;10349925;28;20489;-49
2023/01/29 03:12:01;;;;;;;10.10;6.10;;;;;;;;;;10356843;28;20500;-45
2023/01/29 03:17:02;;;;;;;7.22;6.10;;;;;;;;;;10366802;28;20026;-47
2023/01/29 03:22:07;;;;;;;7.25;5.55;;;;;;;;;;10348683;28;20726;-46
2023/01/29 03:32:30;;;;;;;8.75;5.88;;;;;;;;;;10342530;28;20065;-47
2023/01/29 03:37:46;;;;;;;9.73;6.03;;;;;;;;;;10364927;28;20484;-46
2023/01/29 03:43:15;;;;;;;7.80;5.78;;;;;;;;;;10365035;28;20042;-47
2023/01/29 03:48:33;;;;;;;8.05;5.97;;;;;;;;;;10366124;28;20026;-48
2023/01/29 03:53:43;;;;;;;7.37;5.30;;;;;;;;;;10366342;28;20253;-46
2023/01/29 03:59:00;;;;;;;8.07;5.72;;;;;;;;;;10365365;28;20026;-47
2023/01/29 04:04:23;;;;;;;6.68;5.40;;;;;;;;;;10365815;28;20026;-48
2023/01/29 04:09:38;;;;;;;7.40;5.82;;;;;;;;;;10360100;28;20065;-46
2023/01/29 04:14:38;;;;;;;6.55;5.00;;;;;;;;;;10348961;28;20030;-48
2023/01/29 04:19:39;;;;;;;7.78;5.78;;;;;;;;;;10348018;28;20022;-52
2023/01/29 04:24:41;;;;;;;6.45;5.32;;;;;;;;;;10365009;28;20108;-45
2023/01/29 04:29:59;;;;;;;7.53;5.50;;;;;;;;;;10356833;28;20095;-45
2023/01/29 04:35:30;;;;;;;6.40;5.53;;;;;;;;;;10367429;28;20077;-45
2023/01/29 04:40:42;;;;;;;7.72;5.88;;;;;;;;;;10368143;28;20030;-45
2023/01/29 04:46:08;;;;;;;9.32;5.60;;;;;;;;;;10372101;28;20525;-48
2023/01/29 04:51:28;;;;;;;6.68;5.07;;;;;;;;;;10371958;28;20026;-47
2023/01/29 04:56:50;;;;;;;7.85;5.28;;;;;;;;;;10360490;28;20026;-47
2023/01/29 05:01:51;;;;;;;9.27;5.00;;;;;;;;;;10371922;28;20565;-45
2023/01/29 05:06:54;;;;;;;7.60;5.30;;;;;;;;;;10354242;28;20570;-46
2023/01/29 05:11:55;;;;;;;8.43;5.78;;;;;;;;;;10370213;28;20128;-45
2023/01/29 05:16:59;;;;;;;7.53;5.40;;;;;;;;;;10370902;28;20040;-45
2023/01/29 05:22:03;;;;;;;6.00;4.90;;;;;;;;;;10354057;28;20097;-48
2023/01/29 05:32:23;;;;;;;5.07;4.38;;;;;;;;;;10360250;28;20578;-45
2023/01/29 05:37:24;;;;;;;6.60;4.95;;;;;;;;;;10370592;28;20240;-47
2023/01/29 05:42:24;;;;;;;7.20;5.30;;;;;;;;;;10370290;28;20037;-47
2023/01/29 05:47:25;;;;;;;7.15;5.88;;;;;;;;;;10369381;28;20037;-46
2023/01/29 05:52:25;;;;;;;5.68;5.07;;;;;;;;;;10369623;28;20022;-48
2023/01/29 05:57:26;;;;;;;6.32;5.22;;;;;;;;;;10369683;28;20374;-48
2023/01/29 06:02:30;;;;;;;6.30;5.30;;;;;;;;;;10369070;28;20401;-46
2023/01/29 06:07:30;;;;;;;6.53;5.40;;;;;;;;;;10369088;28;20040;-46
2023/01/29 06:12:31;;;;;;;6.57;5.22;;;;;;;;;;10369118;28;20048;-46
2023/01/29 06:17:32;;;;;;;6.40;4.82;;;;;;;;;;10368695;28;20465;-46
2023/01/29 06:22:33;;;;;;;5.20;4.70;;;;;;;;;;10368418;28;20038;-56
2023/01/29 06:27:33;;;;;;;7.03;5.32;;;;;;;;;;10368356;28;20377;-46
2023/01/29 06:32:34;;;;;;;6.22;5.00;;;;;;;;;;10359429;28;20026;-48
2023/01/29 06:37:35;;;;;;;6.20;5.32;;;;;;;;;;10367538;28;20091;-46
2023/01/29 06:42:35;;;;;;;7.22;4.90;;;;;;;;;;10367915;28;20026;-47
2023/01/29 06:47:36;;;;;;;6.88;5.50;;;;;;;;;;10367613;28;20466;-46
2023/01/29 06:52:36;;;;;;;6.65;5.25;;;;;;;;;;10367301;28;20493;-50
2023/01/29 06:57:37;;;;;;;6.15;5.05;;;;;;;;;;10367148;28;20030;-46
2023/01/29 07:02:38;;;;;;;5.93;5.13;;;;;;;;;;10366917;28;20021;-46
2023/01/29 07:07:38;;;;;;;6.20;4.88;;;;;;;;;;10366810;28;20033;-46
2023/01/29 07:12:39;;;;;;;7.03;5.10;;;;;;;;;;10367343;28;20034;-47
2023/01/29 07:17:39;;;;;;;5.40;4.50;;;;;;;;;;10366734;28;20034;-50
2023/01/29 07:22:40;;;;;;;6.25;4.78;;;;;;;;;;10366439;28;20025;-46
2023/01/29 07:27:40;;;;;;;5.15;4.53;;;;;;;;;;10365934;28;20092;-47
2023/01/29 07:32:41;;;;;;;6.03;4.93;;;;;;;;;;10358470;28;20029;-47
2023/01/29 07:37:42;;;;;;;6.63;4.72;;;;;;;;;;10359836;28;20378;-45
2023/01/29 07:42:43;;;;;;;6.65;4.75;;;;;;;;;;10366062;28;20033;-47
2023/01/29 07:47:43;;;;;;;6.20;4.30;;;;;;;;;;10366057;28;20034;-48
2023/01/29 07:52:45;;;;;;;6.53;4.40;;;;;;;;;;10366329;28;20477;-46
2023/01/29 07:57:46;;;;;;;7.68;3.97;;;;;;;;;;10366270;28;20017;-46
2023/01/29 08:02:46;;;;;;;6.40;4.40;;;;;;;;;;10365897;28;20072;-47
2023/01/29 08:07:52;;;;;;;5.75;4.20;;;;;;;;;;10365812;28;20470;-45
2023/01/29 08:12:58;;;;;;;8.93;4.35;;;;;;;;;;10372821;28;20026;-46
2023/01/29 08:18:01;;;;;;;10.65;4.78;;;;;;;;;;10373142;28;20100;-47
2023/01/29 08:23:10;;;;;;;13.30;4.72;;;;;;;;;;10372063;28;20324;-46
2023/01/29 08:28:11;;;;;;;10.38;4.85;;;;;;;;;;10368406;28;20034;-48
2023/01/29 08:33:12;;;;;;;11.45;5.40;;;;;;;;;;10369245;28;20041;-45
2023/01/29 08:38:12;;;;;;;18.23;4.65;;;;;;;;;;10372977;28;20410;-46
2023/01/29 08:43:13;;;;;;;8.55;4.57;;;;;;;;;;10372029;28;20371;-47
2023/01/29 08:48:14;;;;;;;15.10;4.78;;;;;;;;;;10371773;28;20101;-52
2023/01/29 08:53:14;;;;;;;16.00;4.72;;;;;;;;;;10371442;28;20042;-51
2023/01/29 08:58:15;;;;;;;10.32;4.60;;;;;;;;;;10371943;28;20069;-48
2023/01/29 09:03:15;;;;;;;7.82;4.20;;;;;;;;;;10371695;28;20462;-50
2023/01/29 09:08:16;;;;;;;8.77;4.95;;;;;;;;;;10371344;28;20381;-50
2023/01/29 09:13:16;;;;;;;14.80;4.60;;;;;;;;;;10370813;28;20046;-48
2023/01/29 09:18:17;;;;;;;7.63;4.40;;;;;;;;;;10370992;28;20105;-49
2023/01/29 09:23:18;;;;;;;13.73;4.35;;;;;;;;;;10368697;28;20026;-48
2023/01/29 09:28:18;;;;;;;10.63;4.20;;;;;;;;;;10364566;28;20108;-48
2023/01/29 09:33:19;;;;;;;9.52;4.43;;;;;;;;;;10367782;28;20461;-50
2023/01/29 09:38:20;;;;;;;7.10;4.20;;;;;;;;;;10370212;28;20051;-50
2023/01/29 09:43:53;;;;;;;7.32;4.07;;;;;;;;;;10369747;28;20029;-51
2023/01/29 09:49:20;;;;;;;10.77;3.83;;;;;;;;;;10370150;28;20229;-53
2023/01/29 09:54:29;;;;;;;6.78;3.78;;;;;;;;;;10242962;28;20043;-49
2023/01/29 09:59:31;;;;;;;6.10;3.85;;;;;;;;;;10242515;28;20444;-47
2023/01/29 10:05:16;;;;;;;5.93;3.80;;;;;;;;;;10242441;28;20459;-48
2023/01/29 10:10:48;;;;;;;8.82;4.18;;;;;;;;;;10163340;29;20071;-46
2023/01/29 10:16:22;;;;;;;10.13;4.47;;;;;;;;;;10163038;29;20531;-50
2023/01/29 10:21:45;;;;;;;4.93;3.95;;;;;;;;;;10155578;29;20038;-49
2023/01/29 10:26:45;;;;;;;11.05;3.80;;;;;;;;;;10147936;29;20040;-49
2023/01/29 10:31:55;;;;;;;6.20;4.18;;;;;;;;;;10244535;28;20054;-49
2023/01/29 10:36:56;;;;;;;6.82;3.65;;;;;;;;;;10381646;23;20424;-49
2023/01/29 10:42:14;;;;;;;5.78;4.13;;;;;;;;;;10442813;28;20025;-48
2023/01/29 10:47:27;;;;;;;7.68;3.70;;;;;;;;;;10448721;28;20546;-45
2023/01/29 10:52:46;;;;;;;6.57;4.07;;;;;;;;;;10436236;28;20381;-45
2023/01/29 10:58:11;;;;;;;;;;;;;;;;;;10444986;28;20025;-45
2023/01/29 11:03:25;;;;;;;4.10;3.70;;;;;;;;;;10437625;28;19913;-48
2023/01/29 11:08:55;;;;;;;4.07;3.55;;;;;;;;;;10415834;28;20033;-48
2023/01/29 11:14:09;;;;;;;6.18;3.97;;;;;;;;;;10432883;28;20036;-45
2023/01/29 11:19:10;;;;;;;4.75;3.40;;;;;;;;;;10412344;28;20018;-45
2023/01/29 11:24:17;;;;;;;5.47;3.72;;;;;;;;;;10414622;28;20104;-50
2023/01/29 11:29:43;;;;;;;7.45;4.07;;;;;;;;;;10447399;28;20225;-49
2023/01/29 11:35:04;;;;;;;5.28;3.75;;;;;;;;;;10440753;28;20053;-46
2023/01/29 11:40:17;;;;;;;5.05;3.53;;;;;;;;;;10447231;28;20493;-48
2023/01/29 11:45:26;;;;;;;7.03;3.80;;;;;;;;;;10449956;28;20021;-49
2023/01/29 11:50:29;;;;;;;5.93;3.85;;;;;;;;;;10454871;28;20045;-56
2023/01/29 11:55:35;;;;;;;5.28;3.50;;;;;;;;;;10454130;28;20032;-46
2023/01/29 12:00:40;;;;;;;3.95;3.50;;;;;;;;;;10435922;28;20433;-47
2023/01/29 12:05:58;;;;;;;8.02;3.60;;;;;;;;;;10454150;28;20112;-49
2023/01/29 12:11:26;;;;;;;5.90;4.68;;;;;;;;;;10453746;28;20036;-50
2023/01/29 12:16:34;;;;;;;5.30;3.70;;;;;;;;;;10436130;28;20032;-47
2023/01/29 12:22:20;;;;;;;7.40;4.03;;;;;;;;;;10443736;28;20102;-51
2023/01/29 12:27:48;;;;;;;4.40;3.60;;;;;;;;;;10454088;28;20397;-46
2023/01/29 12:33:00;;;;;;;8.57;4.20;;;;;;;;;;10422051;28;20087;-47
2023/01/29 12:38:22;;;;;;;5.07;3.75;;;;;;;;;;10410276;28;20076;-46
2023/01/29 12:43:47;;;;;;;10.52;4.28;;;;;;;;;;10410650;28;20034;-48
2023/01/29 12:48:49;;;;;;;5.47;3.47;;;;;;;;;;10409543;28;20026;-47
2023/01/29 12:54:09;;;;;;;5.80;3.88;;;;;;;;;;10409213;28;20030;-47
2023/01/29 12:59:51;;;;;;;4.28;3.45;;;;;;;;;;10409525;28;20026;-47
2023/01/29 13:05:08;;;;;;;4.90;3.88;;;;;;;;;;10409064;28;20021;-46
2023/01/29 13:10:15;;;;;;;5.22;4.00;;;;;;;;;;10394894;28;20052;-46
2023/01/29 13:15:38;;;;;;;5.20;4.00;;;;;;;;;;10406112;28;20041;-46
2023/01/29 13:20:39;;;;;;;5.50;3.88;;;;;;;;;;10397401;28;20045;-47
2023/01/29 13:25:40;;;;;;;5.57;4.15;;;;;;;;;;10410113;28;20037;-49
2023/01/29 13:30:41;;;;;;;4.47;3.88;;;;;;;;;;10410622;28;20029;-47
2023/01/29 13:35:44;;;;;;;5.28;3.58;;;;;;;;;;10416521;28;20496;-47
2023/01/29 13:40:49;;;;;;;6.22;4.07;;;;;;;;;;10449299;28;20110;-48
2023/01/29 13:45:52;;;;;;;6.85;4.90;;;;;;;;;;10431142;28;20477;-49
2023/01/29 13:51:01;;;;;;;4.05;3.55;;;;;;;;;;10431387;28;20494;-47
2023/01/29 13:56:31;;;;;;;4.00;3.17;;;;;;;;;;10430876;28;20607;-46
2023/01/29 14:01:47;;;;;;;5.50;4.10;;;;;;;;;;10414944;28;20037;-46
2023/01/29 14:06:55;;;;;;;4.95;4.28;;;;;;;;;;10433710;28;20029;-46
2023/01/29 14:11:56;;;;;;;;;;;;;;;;;;10431537;28;20033;-46
2023/01/29 14:17:01;;;;;;;4.82;3.65;;;;;;;;;;10447002;28;19912;-47
2023/01/29 14:22:03;;;;;;;4.78;3.83;;;;;;;;;;10409092;28;20033;-48
2023/01/29 14:27:04;;;;;;;6.10;3.97;;;;;;;;;;10407494;28;20029;-48
2023/01/29 14:32:20;;;;;;;6.53;3.90;;;;;;;;;;10438420;28;20037;-48
2023/01/29 14:37:34;;;;;;;6.45;4.38;;;;;;;;;;10428862;28;20048;-46
2023/01/29 14:42:37;;;;;;;4.43;3.30;;;;;;;;;;10423776;28;20109;-47
2023/01/29 14:47:37;;;;;;;4.25;3.47;;;;;;;;;;10400074;28;20105;-47
2023/01/29 14:52:41;;;;;;;4.63;3.97;;;;;;;;;;10411322;28;20026;-46
2023/01/29 14:57:42;;;;;;;5.65;3.63;;;;;;;;;;10444075;28;20146;-46
2023/01/29 15:02:44;;;;;;;5.10;3.63;;;;;;;;;;10438654;28;20124;-47
2023/01/29 15:08:03;;;;;;;5.32;3.63;;;;;;;;;;10431832;28;20472;-46
2023/01/29 15:13:13;;;;;;;4.88;3.95;;;;;;;;;;10425532;28;20032;-47
2023/01/29 15:18:30;;;;;;;4.88;3.40;;;;;;;;;;10401630;28;20033;-48
2023/01/29 15:23:33;;;;;;;6.85;4.13;;;;;;;;;;10425384;28;20156;-47
2023/01/29 15:28:34;;;;;;;4.47;3.58;;;;;;;;;;10447000;28;20025;-49
2023/01/29 15:33:37;;;;;;;4.85;3.53;;;;;;;;;;10445444;28;20038;-49
2023/01/29 15:38:38;;;;;;;4.32;3.58;;;;;;;;;;10445521;28;20041;-49
2023/01/29 15:43:44;;;;;;;3.92;3.30;;;;;;;;;;10445977;28;20021;-46
2023/01/29 15:48:48;;;;;;;4.43;3.50;;;;;;;;;;10427933;28;20315;-46
2023/01/29 15:54:00;;;;;;;3.80;3.38;;;;;;;;;;10445930;28;20033;-48
2023/01/29 15:59:04;;;;;;;3.75;3.20;;;;;;;;;;10443728;28;20033;-48
2023/01/29 16:04:08;;;;;;;4.05;3.20;;;;;;;;;;10426757;28;20017;-46
2023/01/29 16:09:19;;;;;;;5.55;3.67;;;;;;;;;;10443093;28;20495;-46
2023/01/29 16:14:24;;;;;;;5.93;3.90;;;;;;;;;;10400043;28;20038;-46
2023/01/29 16:19:28;;;;;;;4.35;3.47;;;;;;;;;;10423307;28;20037;-47
2023/01/29 16:24:31;;;;;;;4.13;3.63;;;;;;;;;;10373006;28;20057;-46
2023/01/29 16:29:33;;;;;;;4.47;3.40;;;;;;;;;;10404241;28;20252;-47
2023/01/29 16:34:43;;;;;;;5.15;3.58;;;;;;;;;;10448689;28;20063;-47
2023/01/29 16:39:46;;;;;;;4.20;3.25;;;;;;;;;;10453384;28;20033;-49
2023/01/29 16:45:25;;;;;;;4.55;3.20;;;;;;;;;;10453778;28;20047;-47
2023/01/29 16:50:34;;;;;;;;;;;;;;;;;;10438952;28;20021;-47
2023/01/29 16:55:42;;;;;;;3.38;3.08;;;;;;;;;;10451442;28;20333;-48
2023/01/29 17:00:46;;;;;;;6.32;3.60;;;;;;;;;;10435913;28;20025;-61
2023/01/29 17:05:46;;;;;;;3.55;3.10;;;;;;;;;;10452067;28;20083;-47
2023/01/29 17:10:47;;;;;;;3.05;2.75;;;;;;;;;;10433932;28;20021;-50
2023/01/29 17:15:48;;;;;;;4.47;3.20;;;;;;;;;;10451702;28;20028;-47
2023/01/29 17:20:51;;;;;;;4.78;3.53;;;;;;;;;;10440878;28;20025;-47
2023/01/29 17:25:52;;;;;;;3.92;3.35;;;;;;;;;;10451664;28;20209;-49
2023/01/29 17:30:53;;;;;;;4.25;3.50;;;;;;;;;;10427827;28;20241;-48
2023/01/29 17:35:53;;;;;;;4.50;3.47;;;;;;;;;;10430613;28;20061;-46
2023/01/29 17:41:23;;;;;;;5.85;3.58;;;;;;;;;;10426201;28;20038;-46
2023/01/29 17:46:23;;;;;;;3.53;3.22;;;;;;;;;;10397082;28;20037;-46
2023/01/29 17:51:24;;;;;;;10.15;3.75;;;;;;;;;;10425284;28;20037;-47
2023/01/29 17:56:29;;;;;;;8.88;3.63;;;;;;;;;;10442824;28;20231;-47
2023/01/29 18:01:30;;;;;;;5.85;3.95;;;;;;;;;;10418764;28;20104;-48
2023/01/29 18:06:30;;;;;;;7.10;3.92;;;;;;;;;;10407622;28;20033;-47
2023/01/29 18:11:31;;;;;;;30.20;6.20;;;;;;;;;;10412245;28;20055;-46
2023/01/29 18:16:41;;;;;;;25.65;5.40;;;;;;;;;;10412619;28;20045;-46
2023/01/29 18:21:41;;;;;;;18.48;4.45;;;;;;;;;;10411299;28;20380;-48
2023/01/29 18:26:42;;;;;;;11.40;4.38;;;;;;;;;;10401540;28;20029;-47
2023/01/29 18:31:42;;;;;;;9.32;4.63;;;;;;;;;;10428448;28;20036;-47
2023/01/29 18:36:46;;;;;;;10.38;4.68;;;;;;;;;;10426905;28;20043;-48
2023/01/29 18:41:47;;;;;;;14.02;4.47;;;;;;;;;;10420694;28;20033;-46
2023/01/29 18:46:48;;;;;;;9.00;4.50;;;;;;;;;;10401790;28;20032;-47
2023/01/29 18:51:48;;;;;;;8.23;4.32;;;;;;;;;;10412922;28;20431;-47
2023/01/29 18:56:50;;;;;;;6.78;4.03;;;;;;;;;;10426294;28;20026;-47
2023/01/29 19:01:50;;;;;;;9.40;4.10;;;;;;;;;;10412951;28;20037;-46
2023/01/29 19:06:51;;;;;;;9.40;4.53;;;;;;;;;;10425656;28;20075;-47
2023/01/29 19:11:51;;;;;;;10.80;4.45;;;;;;;;;;10427221;28;20021;-48
2023/01/29 19:16:52;;;;;;;8.98;4.55;;;;;;;;;;10421332;28;20033;-44
2023/01/29 19:21:53;;;;;;;10.45;4.20;;;;;;;;;;10416465;28;20037;-46
2023/01/29 19:26:54;;;;;;;7.65;3.83;;;;;;;;;;10447713;28;20029;-46
2023/01/29 19:31:55;;;;;;;11.55;4.35;;;;;;;;;;10447004;28;20057;-46
2023/01/29 19:36:55;;;;;;;9.05;5.13;;;;;;;;;;10446149;28;20052;-55
2023/01/29 19:41:56;;;;;;;11.00;4.07;;;;;;;;;;10444562;28;20025;-48
2023/01/29 19:46:56;;;;;;;9.48;4.38;;;;;;;;;;10419069;28;20025;-47
2023/01/29 19:51:57;;;;;;;7.88;4.85;;;;;;;;;;10420670;28;20039;-48
2023/01/29 19:56:58;;;;;;;7.75;4.57;;;;;;;;;;10446901;28;20139;-46
2023/01/29 20:01:58;;;;;;;6.82;4.32;;;;;;;;;;10437606;28;20051;-46
2023/01/29 20:06:59;;;;;;;7.18;5.05;;;;;;;;;;10435598;28;20026;-46
2023/01/29 20:12:00;;;;;;;9.02;5.18;;;;;;;;;;10428072;28;20021;-47
2023/01/29 20:17:00;;;;;;;11.98;5.13;;;;;;;;;;10423071;28;20029;-46
2023/01/29 20:22:01;;;;;;;9.57;4.65;;;;;;;;;;10431149;28;20387;-46
2023/01/29 20:27:02;;;;;;;6.07;4.53;;;;;;;;;;10445924;28;20400;-47
2023/01/29 20:32:03;;;;;;;6.88;4.97;;;;;;;;;;10432584;28;20025;-48
2023/01/29 20:37:04;;;;;;;8.15;4.72;;;;;;;;;;10443164;28;20045;-47
2023/01/29 20:42:05;;;;;;;7.72;5.25;;;;;;;;;;10440652;28;20025;-46
2023/01/29 20:47:05;;;;;;;8.73;4.70;;;;;;;;;;10424454;28;20024;-46
2023/01/29 20:52:07;;;;;;;6.40;4.28;;;;;;;;;;10431173;28;20029;-47
2023/01/29 20:57:08;;;;;;;7.47;4.25;;;;;;;;;;10419070;28;20265;-45
2023/01/29 21:02:09;;;;;;;8.68;4.75;;;;;;;;;;10416899;28;20265;-45
2023/01/29 21:07:10;;;;;;;7.18;5.53;;;;;;;;;;10424280;28;20029;-45
2023/01/29 21:12:10;;;;;;;9.05;4.90;;;;;;;;;;10390513;28;20033;-46
2023/01/29 21:17:11;;;;;;;13.30;5.20;;;;;;;;;;10420058;28;20104;-46
2023/01/29 21:22:12;;;;;;;8.75;5.57;;;;;;;;;;10422331;28;20025;-50
2023/01/29 21:27:12;;;;;;;8.85;5.75;;;;;;;;;;10407279;28;20091;-46
2023/01/29 21:32:13;;;;;;;9.70;5.80;;;;;;;;;;10425151;28;21177;-58
2023/01/29 21:37:13;;;;;;;9.35;5.88;;;;;;;;;;10428928;28;20044;-47
2023/01/29 21:47:33;;;;;;;8.20;6.03;;;;;;;;;;10415833;28;20029;-47
2023/01/29 21:52:34;;;;;;;9.63;5.43;;;;;;;;;;10436544;28;20036;-45
2023/01/29 21:57:34;;;;;;;7.95;5.20;;;;;;;;;;10430870;28;20404;-49
2023/01/29 22:02:35;;;;;;;10.60;5.57;;;;;;;;;;10407097;28;20041;-45
2023/01/29 22:07:36;;;;;;;9.80;6.82;;;;;;;;;;10424630;28;20033;-46
2023/01/29 22:12:37;;;;;;;9.98;6.63;;;;;;;;;;10432729;28;20083;-45
2023/01/29 22:17:40;;;;;;;11.23;7.38;;;;;;;;;;10416470;28;20121;-46
2023/01/29 22:22:40;;;;;;;12.82;7.40;;;;;;;;;;10404361;28;20041;-47
2023/01/29 22:27:41;;;;;;;10.80;7.13;;;;;;;;;;10406104;28;20099;-46
2023/01/29 22:32:42;;;;;;;10.10;7.07;;;;;;;;;;10445979;28;20115;-47
2023/01/29 22:37:43;;;;;;;16.17;6.40;;;;;;;;;;10386506;28;1122596;-50
2023/01/29 22:42:44;;;;;;;9.18;6.85;;;;;;;;;;10448834;28;20029;-50
2023/01/29 22:47:44;;;;;;;12.13;7.65;;;;;;;;;;10449230;28;20033;-48
2023/01/29 22:52:52;;;;;;;10.50;7.28;;;;;;;;;;10448676;28;20031;-51
2023/01/29 22:57:53;;;;;;;12.55;6.63;;;;;;;;;;10449369;28;20021;-48
2023/01/29 23:02:53;;;;;;;9.05;6.68;;;;;;;;;;10422748;28;20025;-47
2023/01/29 23:07:54;;;;;;;10.98;6.82;;;;;;;;;;10446422;28;20032;-50
2023/01/29 23:12:54;;;;;;;11.43;7.25;;;;;;;;;;10448249;28;20036;-50
2023/01/29 23:17:55;;;;;;;10.93;6.90;;;;;;;;;;10446912;28;20025;-49
2023/01/29 23:22:56;;;;;;;11.13;6.68;;;;;;;;;;10432383;28;20036;-47
2023/01/29 23:27:56;;;;;;;10.25;7.20;;;;;;;;;;10415673;28;20025;-47
2023/01/29 23:32:57;;;;;;;10.43;7.13;;;;;;;;;;10432000;28;20030;-46
2023/01/29 23:37:57;;;;;;;12.52;6.93;;;;;;;;;;10426482;28;20099;-47
2023/01/29 23:42:58;;;;;;;11.80;6.97;;;;;;;;;;10419498;28;20033;-50
2023/01/29 23:47:58;;;;;;;10.55;5.97;;;;;;;;;;10414831;28;20030;-50
2023/01/29 23:52:59;;;;;;;12.13;7.50;;;;;;;;;;10409580;28;20095;-49
2023/01/29 23:57:59;;;;;;;9.75;6.60;;;;;;;;;;10443795;28;20033;-51
